• Join FlightAware (Why Join?)
  • Login
  • US Flag 
09:04AM EST


 

Airport Tracker/Info


-or-


 

Live Flight TrackerFlight Track Log ✈ DAL1205 ✈ 17-Apr-2013 ✈ KATL - KBNA

Flight Track Log - Related Links

Times and Time Zones

All times are in EDT time to prevent confusion due to time zone crossing. See the DAL1205 flight status page for this flight to view local times or setup timezone preferences in your user account.

Time Position Orientation Groundspeed Altitude Reporting Facility
EDT Latitude Longitude Course Direction KTS MPH feet Rate Location/Type
07:20PM 33.6500 -84.3333 342° North 226 260 3,200  Level Atlanta TRACON
07:21PM 33.6667 -84.2500 76° East 269 310 6,400 3,000 Climbing Atlanta TRACON
07:22PM 33.8867 -84.5680 342° North  Level FlightAware Approximate
07:22PM 33.7167 -84.2000 40° Northeast 297 342 9,300  Level Atlanta TRACON
07:23PM 33.9936 -84.6107 342° North  Level FlightAware Approximate
07:24PM 34.1006 -84.6535 342° North  Level FlightAware Approximate
07:24PM 33.9025 -84.3642 324° Northwest 342 394 13,400  Level Atlanta Center
07:25PM 34.2075 -84.6963 342° North  Level FlightAware Approximate
07:25PM 33.9878 -84.4447 322° Northwest 387 445 14,000  Level Atlanta Center
07:26PM 34.0667 -84.5328 317° Northwest 394 453 15,400 2,100 Climbing Atlanta Center
07:27PM 34.1433 -84.6386 311° West 401 461 18,200 2,640 Climbing Atlanta Center
07:28PM 34.2203 -84.7372 313° West 407 468 20,700 2,100 Climbing Atlanta Center
07:29PM 34.2906 -84.8383 310° West 407 468 22,400 2,040 Climbing Atlanta Center
07:30PM 34.3439 -84.9594 298° West 404 465 24,800 1,680 Climbing Atlanta Center
07:31PM 34.3678 -85.0908 282° West 401 461 25,800 600 Climbing Atlanta Center
07:32PM 34.3939 -85.2244 283° West 412 474 26,000 60 Climbing Atlanta Center
07:33PM 34.4153 -85.3683 280° West 420 483 26,000  Level Atlanta Center
07:34PM 34.4242 -85.5144 274° West 431 496 26,000  Level Atlanta Center
07:35PM 34.4369 -85.6583 276° West 431 496 26,000  Level Atlanta Center
07:36PM 34.4642 -85.8050 283° West 442 509 26,000  Level Atlanta Center
07:37PM 34.5206 -85.9372 297° West 440 506 26,000  Level Atlanta Center
07:38PM 34.5769 -86.0697 297° West 445 512 26,000  Level Atlanta Center
07:39PM 34.6289 -86.2047 295° West 445 512 26,000 -540 Level Atlanta Center
07:41PM 34.7247 -86.4508 295° West 442 509 24,500 -720 Descending Memphis Center
07:42PM 34.7903 -86.5489 309° West 424 488 24,000 -1,020 Descending Memphis Center
07:43PM 34.9072 -86.5511 359° North 368 423 22,500 -1,920 Descending Memphis Center
07:44PM 35.0261 -86.5508 360° North 381 438 20,200 -2,160 Descending Memphis Center
07:45PM 35.1350 -86.5636 355° North 396 456 18,200 -2,220 Descending Memphis Center
07:46PM 35.2417 -86.5792 353° North 391 450 15,800 -2,400 Descending Memphis Center
07:47PM 35.3506 -86.5894 356° North 391 450 13,400 -1,620 Descending Memphis Center
07:48PM 35.4547 -86.5847 North 383 441 12,600 -900 Descending Memphis Center
07:49PM 35.5533 -86.6008 352° North 366 421 11,600 -780 Descending Memphis Center
07:50PM 35.6458 -86.6247 348° North 344 396 11,100 -840 Descending Memphis Center
07:51PM 35.7425 -86.6536 346° North 332 382 10,000 -1,260 Descending Memphis Center
07:52PM 35.8269 -86.6139 21° North 312 359 8,600 -1,020 Descending Memphis Center
07:53PM 35.9117 -86.5919 12° North 312 359 8,000 -1,020 Descending Memphis Center
07:54PM 35.9964 -86.5703 12° North 312 359 6,600 -1,500 Descending Memphis Center
07:55PM 36.0772 -86.5486 12° North 312 359 5,100 -1,200 Descending Memphis Center
07:56PM 36.1539 -86.5347 North 292 336 4,200 -1,140 Descending Memphis Center
07:57PM 36.2128 -86.5500 348° North 228 262 2,900 -1,320 Descending Memphis Center